createdAt,value
2022-09-24T00:00:37.359Z,8.35
2022-09-24T00:07:27.586Z,9.45
2022-09-24T00:09:58.683Z,9.15
2022-09-24T00:13:08.925Z,9.63
2022-09-24T00:15:40.709Z,9.57
2022-09-24T00:18:21.361Z,9.25
2022-09-24T00:20:50.522Z,9.48
2022-09-24T00:23:52.574Z,9.07
2022-09-24T00:26:40.067Z,8.90
2022-09-24T00:29:10.195Z,9.23
2022-09-24T00:40:40.079Z,9.40
2022-09-24T00:44:16.814Z,9.27
2022-09-24T00:50:58.138Z,8.45
2022-09-24T00:53:32.088Z,9.40
2022-09-24T00:56:04.587Z,8.80
2022-09-24T00:59:02.644Z,8.55
2022-09-24T01:01:32.172Z,8.95
2022-09-24T01:08:06.000Z,8.63
2022-09-24T01:10:52.364Z,8.55
2022-09-24T01:13:43.728Z,8.88
2022-09-24T01:16:23.788Z,9.20
2022-09-24T01:18:58.283Z,8.57
2022-09-24T01:22:51.534Z,8.80
2022-09-24T01:25:31.116Z,9.13
2022-09-24T01:30:42.534Z,8.05
2022-09-24T01:37:59.116Z,7.65
2022-09-24T01:40:30.548Z,7.18
2022-09-24T01:47:34.406Z,7.63
2022-09-24T01:50:06.088Z,7.80
2022-09-24T01:52:42.181Z,8.68
2022-09-24T01:59:28.435Z,8.43
2022-09-24T02:03:01.735Z,8.70
2022-09-24T02:05:37.898Z,8.50
2022-09-24T02:08:10.919Z,8.32
2022-09-24T02:10:46.990Z,7.75
2022-09-24T02:13:19.048Z,7.32
2022-09-24T02:15:52.454Z,7.07
2022-09-24T02:18:26.902Z,7.35
2022-09-24T02:20:59.726Z,7.63
2022-09-24T02:23:32.594Z,8.07
2022-09-24T02:26:03.548Z,7.32
2022-09-24T02:28:33.436Z,8.65
2022-09-24T02:31:08.272Z,8.60
2022-09-24T02:33:57.441Z,8.50
2022-09-24T02:36:29.384Z,8.23
2022-09-24T02:38:58.980Z,8.02
2022-09-24T02:46:11.859Z,7.18
2022-09-24T02:48:41.058Z,8.32
2022-09-24T02:52:16.228Z,8.52
2022-09-24T02:55:19.227Z,9.00
2022-09-24T02:57:48.542Z,10.40
2022-09-24T03:00:21.275Z,9.30
2022-09-24T03:02:57.014Z,9.18
2022-09-24T03:05:26.451Z,8.85
2022-09-24T03:07:59.182Z,8.85
2022-09-24T03:10:30.304Z,8.98
2022-09-24T03:17:51.489Z,8.48
2022-09-24T03:20:20.776Z,8.60
2022-09-24T03:26:58.451Z,8.43
2022-09-24T03:29:41.433Z,9.18
2022-09-24T03:32:36.493Z,9.65
2022-09-24T03:35:05.678Z,8.52
2022-09-24T03:37:37.534Z,9.13
2022-09-24T03:40:08.307Z,10.00
2022-09-24T03:47:01.870Z,9.05
2022-09-24T03:49:31.018Z,9.50
2022-09-24T03:52:04.018Z,9.60
2022-09-24T03:54:33.234Z,8.73
2022-09-24T03:57:02.182Z,8.98
2022-09-24T03:59:31.290Z,8.75
2022-09-24T04:02:25.522Z,8.90
2022-09-24T04:04:56.284Z,10.25
2022-09-24T04:07:25.157Z,8.90
2022-09-24T04:09:54.243Z,9.63
2022-09-24T04:13:21.548Z,8.02
2022-09-24T04:15:51.866Z,8.65
2022-09-24T04:18:21.380Z,8.80
2022-09-24T04:20:51.985Z,9.73
2022-09-24T04:24:01.862Z,8.60
2022-09-24T04:32:48.504Z,8.60
2022-09-24T04:35:18.002Z,9.38
2022-09-24T04:37:48.553Z,8.40
2022-09-24T04:40:19.101Z,8.98
2022-09-24T04:43:17.677Z,8.63
2022-09-24T04:45:47.401Z,9.17
2022-09-24T04:48:17.520Z,9.02
2022-09-24T04:50:46.627Z,8.30
2022-09-24T04:53:19.008Z,9.43
2022-09-24T04:55:48.583Z,9.05
2022-09-24T05:09:27.005Z,7.18
2022-09-24T05:16:39.765Z,6.38
2022-09-24T05:19:09.007Z,5.93
2022-09-24T05:22:58.803Z,6.75
2022-09-24T05:25:29.366Z,6.60
2022-09-24T05:27:57.383Z,6.25
2022-09-24T05:30:27.697Z,6.25
2022-09-24T05:33:07.483Z,5.53
2022-09-24T05:35:37.147Z,6.80
2022-09-24T05:38:06.045Z,6.45
2022-09-24T05:40:51.781Z,6.30
2022-09-24T05:43:21.601Z,6.18
2022-09-24T05:45:51.543Z,5.20
2022-09-24T05:48:21.095Z,5.60
2022-09-24T05:50:50.266Z,5.70
2022-09-24T05:53:19.319Z,5.53
2022-09-24T05:55:50.130Z,5.63
2022-09-24T05:58:19.601Z,5.43
2022-09-24T06:00:48.894Z,5.85
2022-09-24T06:04:14.892Z,5.57
2022-09-24T06:07:12.449Z,6.13
2022-09-24T06:09:41.391Z,5.80
2022-09-24T06:12:16.100Z,5.70
2022-09-24T06:14:45.308Z,4.85
2022-09-24T06:17:14.441Z,4.35
2022-09-24T06:19:43.663Z,6.03
2022-09-24T06:22:28.566Z,5.93
2022-09-24T06:25:26.825Z,5.35
2022-09-24T06:28:38.781Z,6.13
2022-09-24T06:31:12.715Z,5.03
2022-09-24T06:33:42.715Z,4.60
2022-09-24T06:36:12.299Z,4.22
2022-09-24T06:38:42.025Z,4.43
2022-09-24T06:41:11.631Z,3.83
2022-09-24T06:43:49.438Z,3.60
2022-09-24T06:46:19.861Z,4.80
2022-09-24T06:49:21.067Z,4.70
2022-09-24T06:51:51.282Z,4.95
2022-09-24T06:54:20.635Z,4.88
2022-09-24T06:56:52.721Z,4.85
2022-09-24T06:59:21.591Z,3.63
2022-09-24T07:03:04.942Z,3.70
2022-09-24T07:10:18.138Z,2.83
2022-09-24T07:12:55.771Z,2.65
2022-09-24T07:15:27.489Z,2.80
2022-09-24T07:18:26.380Z,2.60
2022-09-24T07:20:56.079Z,2.88
2022-09-24T07:24:22.774Z,3.08
2022-09-24T07:26:53.159Z,2.47
2022-09-24T07:29:22.697Z,2.72
2022-09-24T07:37:00.508Z,2.50
2022-09-24T07:39:29.957Z,2.20
2022-09-24T07:42:56.025Z,1.92
2022-09-24T07:45:29.935Z,2.20
2022-09-24T07:48:00.438Z,2.33
2022-09-24T07:50:30.987Z,2.00
2022-09-24T07:53:00.717Z,2.05
2022-09-24T07:55:29.836Z,2.10
2022-09-24T07:57:58.527Z,2.20
2022-09-24T08:00:29.140Z,2.35
2022-09-24T08:03:26.117Z,1.80
2022-09-24T08:05:58.758Z,2.10
2022-09-24T08:08:29.519Z,1.95
2022-09-24T08:10:59.199Z,1.98
2022-09-24T08:16:03.301Z,2.08
2022-09-24T08:18:35.424Z,1.90
2022-09-24T08:21:35.237Z,1.88
2022-09-24T08:28:28.806Z,1.75
2022-09-24T08:31:02.068Z,2.15
2022-09-24T08:33:32.703Z,2.10
2022-09-24T08:36:04.824Z,1.85
2022-09-24T08:38:34.263Z,2.00
2022-09-24T08:41:15.831Z,1.73
2022-09-24T08:43:53.243Z,2.17
2022-09-24T08:46:46.490Z,2.15
2022-09-24T08:49:20.097Z,1.85
2022-09-24T08:51:58.939Z,1.90
2022-09-24T08:54:32.437Z,1.98
2022-09-24T08:57:12.973Z,2.00
2022-09-24T08:59:46.160Z,1.92
2022-09-24T09:02:48.829Z,2.20
2022-09-24T09:05:27.818Z,2.15
2022-09-24T09:08:03.394Z,1.80
2022-09-24T09:10:37.986Z,2.17
2022-09-24T09:13:34.532Z,1.88
2022-09-24T09:16:07.748Z,1.63
2022-09-24T09:18:42.450Z,1.85
2022-09-24T09:21:18.256Z,1.88
2022-09-24T09:23:49.758Z,2.20
2022-09-24T09:26:20.470Z,2.15
2022-09-24T09:28:50.360Z,1.70
2022-09-24T09:31:32.049Z,2.03
2022-09-24T09:34:32.157Z,1.90
2022-09-24T09:37:13.682Z,2.00
2022-09-24T09:39:49.763Z,1.85
2022-09-24T09:42:32.428Z,2.20
2022-09-24T09:45:03.874Z,2.00
2022-09-24T09:47:42.216Z,2.17
2022-09-24T09:50:22.699Z,2.20
2022-09-24T10:02:29.679Z,1.70
2022-09-24T10:05:00.461Z,1.70
2022-09-24T10:07:31.803Z,1.90
2022-09-24T10:10:04.354Z,1.67
2022-09-24T10:17:07.447Z,1.60
2022-09-24T10:19:39.444Z,1.63
2022-09-24T10:22:22.712Z,1.80
2022-09-24T10:25:02.530Z,1.80
2022-09-24T10:30:20.945Z,1.90
2022-09-24T10:32:59.267Z,1.90
2022-09-24T10:35:30.114Z,1.70
2022-09-24T10:38:01.577Z,1.67
2022-09-24T10:40:39.354Z,1.67
2022-09-24T10:43:16.862Z,1.65
2022-09-24T10:46:02.711Z,1.73
2022-09-24T10:48:40.012Z,1.50
2022-09-24T10:51:29.385Z,1.52
2022-09-24T10:54:19.409Z,1.85
2022-09-24T10:56:55.184Z,2.00
2022-09-24T10:59:42.710Z,1.95
2022-09-24T11:02:46.486Z,1.90
2022-09-24T11:05:22.643Z,1.63
2022-09-24T11:08:01.546Z,1.50
2022-09-24T11:10:51.553Z,1.70
2022-09-24T11:14:24.693Z,1.60
2022-09-24T11:17:03.511Z,1.60
2022-09-24T11:20:03.407Z,1.50
2022-09-24T11:22:54.015Z,1.70
2022-09-24T11:25:33.238Z,1.38
2022-09-24T11:28:17.653Z,1.55
2022-09-24T11:30:57.474Z,1.40
2022-09-24T11:34:25.121Z,1.40
2022-09-24T11:37:11.034Z,1.30
2022-09-24T11:39:58.502Z,1.20
2022-09-24T11:43:43.947Z,1.20
2022-09-24T11:46:22.748Z,1.20
2022-09-24T11:49:07.333Z,1.13
2022-09-24T11:51:54.006Z,1.25
2022-09-24T11:54:36.407Z,1.30
2022-09-24T11:57:13.320Z,1.20
2022-09-24T11:59:52.502Z,1.10
2022-09-24T12:02:26.746Z,1.20
2022-09-24T12:05:05.690Z,1.30
2022-09-24T12:07:41.002Z,1.20
2022-09-24T12:10:30.026Z,1.35
2022-09-24T12:13:06.220Z,1.02
2022-09-24T12:15:46.699Z,1.50
2022-09-24T12:18:23.492Z,1.20
2022-09-24T12:25:51.730Z,1.00
2022-09-24T12:28:35.905Z,1.15
2022-09-24T12:31:34.850Z,1.20
2022-09-24T12:34:33.476Z,1.20
2022-09-24T12:37:33.256Z,1.00
2022-09-24T12:40:18.244Z,1.20
2022-09-24T12:47:33.530Z,1.30
2022-09-24T12:50:05.792Z,1.38
2022-09-24T12:53:03.577Z,1.13
2022-09-24T13:00:41.471Z,1.30
2022-09-24T13:03:34.563Z,1.42
2022-09-24T13:06:25.200Z,1.35
2022-09-24T13:08:55.249Z,1.20
2022-09-24T13:15:38.898Z,1.48
2022-09-24T13:18:24.384Z,2.40
2022-09-24T13:21:05.765Z,1.27
2022-09-24T13:23:46.259Z,1.23
2022-09-24T13:26:28.276Z,1.13
2022-09-24T13:29:00.856Z,1.17
2022-09-24T13:36:17.550Z,1.30
2022-09-24T13:38:54.727Z,1.40
2022-09-24T13:41:30.794Z,1.48
2022-09-24T13:44:06.445Z,1.45
2022-09-24T13:46:38.170Z,1.42
2022-09-24T13:49:13.898Z,1.30
2022-09-24T13:52:17.056Z,1.30
2022-09-24T13:55:17.701Z,1.35
2022-09-24T13:57:47.777Z,1.20
2022-09-24T14:00:21.440Z,1.10
2022-09-24T14:07:34.876Z,1.10
2022-09-24T14:10:06.317Z,1.50
2022-09-24T14:12:36.059Z,1.95
2022-09-24T14:15:11.607Z,1.38
2022-09-24T14:17:42.876Z,1.50
2022-09-24T14:20:22.422Z,1.60
2022-09-24T14:22:53.250Z,1.63
2022-09-24T14:29:49.839Z,1.30
2022-09-24T14:32:24.426Z,1.25
2022-09-24T14:34:55.588Z,1.50
2022-09-24T14:37:29.242Z,1.63
2022-09-24T14:40:07.940Z,1.48
2022-09-24T14:42:41.666Z,1.60
2022-09-24T14:45:12.313Z,1.50
2022-09-24T14:47:41.526Z,1.70
2022-09-24T14:50:28.970Z,1.35
2022-09-24T14:53:00.839Z,1.63
2022-09-24T14:55:41.025Z,1.20
2022-09-24T14:58:36.788Z,1.50
2022-09-24T15:01:14.288Z,1.60
2022-09-24T15:03:46.458Z,1.75
2022-09-24T15:06:21.902Z,1.85
2022-09-24T15:08:58.165Z,1.65
2022-09-24T15:11:31.677Z,1.55
2022-09-24T15:14:27.716Z,1.83
2022-09-24T15:16:58.454Z,1.80
2022-09-24T15:19:30.953Z,1.52
2022-09-24T15:22:07.558Z,2.30
2022-09-24T15:24:36.327Z,1.73
2022-09-24T15:27:08.513Z,1.83
2022-09-24T15:29:58.851Z,1.77
2022-09-24T15:32:57.574Z,1.45
2022-09-24T15:35:26.657Z,1.45
2022-09-24T15:37:55.812Z,1.77
2022-09-24T15:40:31.006Z,1.70
2022-09-24T15:43:30.038Z,1.67
2022-09-24T15:45:59.206Z,1.70
2022-09-24T15:48:34.683Z,1.80
2022-09-24T15:51:18.595Z,1.40
2022-09-24T15:53:55.747Z,1.60
2022-09-24T15:57:00.929Z,1.52
2022-09-24T15:59:31.351Z,1.50
2022-09-24T16:02:33.191Z,1.50
2022-09-24T16:09:46.104Z,1.40
2022-09-24T16:12:16.912Z,1.58
2022-09-24T16:14:47.748Z,1.50
2022-09-24T16:17:18.067Z,2.00
2022-09-24T16:19:47.042Z,1.85
2022-09-24T16:22:20.215Z,1.55
2022-09-24T16:24:49.693Z,1.58
2022-09-24T16:27:19.354Z,1.63
2022-09-24T16:29:49.839Z,1.80
2022-09-24T16:32:19.078Z,1.48
2022-09-24T16:34:49.348Z,1.70
2022-09-24T16:37:18.645Z,1.50
2022-09-24T16:39:47.825Z,1.60
2022-09-24T16:42:17.536Z,1.50
2022-09-24T16:44:46.741Z,1.63
2022-09-24T16:47:19.129Z,1.70
2022-09-24T16:49:49.754Z,1.63
2022-09-24T16:57:06.244Z,1.60
2022-09-24T16:59:35.746Z,1.42
2022-09-24T17:02:05.653Z,1.25
2022-09-24T17:04:37.529Z,1.45
2022-09-24T17:07:06.788Z,2.22
2022-09-24T17:09:52.952Z,1.35
2022-09-24T17:12:22.388Z,1.50
2022-09-24T17:14:51.544Z,1.50
2022-09-24T17:17:20.567Z,1.50
2022-09-24T17:19:51.767Z,1.27
2022-09-24T17:22:20.745Z,1.92
2022-09-24T17:24:54.822Z,1.50
2022-09-24T17:27:24.515Z,1.40
2022-09-24T17:29:56.135Z,1.42
2022-09-24T17:32:26.265Z,1.48
2022-09-24T17:34:56.734Z,1.70
2022-09-24T17:37:25.770Z,1.35
2022-09-24T17:39:55.115Z,2.63
2022-09-24T17:42:24.471Z,2.10
2022-09-24T17:44:53.869Z,2.92
2022-09-24T17:47:25.103Z,5.35
2022-09-24T17:49:56.355Z,5.45
2022-09-24T17:52:28.380Z,5.55
2022-09-24T17:54:57.885Z,6.32
2022-09-24T17:57:29.582Z,7.05
2022-09-24T17:59:59.029Z,6.20
2022-09-24T18:06:51.873Z,6.63
2022-09-24T18:09:22.023Z,4.68
2022-09-24T18:11:53.738Z,5.05
2022-09-24T18:14:24.472Z,4.70
2022-09-24T18:16:53.945Z,4.38
2022-09-24T18:19:23.270Z,4.75
2022-09-24T18:21:56.361Z,4.95
2022-09-24T18:24:31.145Z,7.13
2022-09-24T18:27:00.584Z,6.05
2022-09-24T18:29:29.985Z,6.47
2022-09-24T18:34:31.766Z,8.60
2022-09-24T18:40:20.931Z,7.90
2022-09-24T18:42:58.314Z,7.90
2022-09-24T18:45:28.560Z,7.47
2022-09-24T18:47:58.257Z,8.80
2022-09-24T18:50:28.486Z,12.13
2022-09-24T18:53:00.381Z,11.98
2022-09-24T18:55:31.443Z,11.45
2022-09-24T18:58:02.899Z,12.23
2022-09-24T19:00:49.393Z,11.50
2022-09-24T19:03:18.938Z,11.95
2022-09-24T19:10:14.862Z,9.18
2022-09-24T19:12:46.548Z,9.80
2022-09-24T19:15:15.633Z,10.70
2022-09-24T19:17:44.688Z,10.52
2022-09-24T19:20:13.657Z,10.30
2022-09-24T19:22:48.388Z,11.52
2022-09-24T19:25:17.739Z,11.50
2022-09-24T19:27:48.801Z,11.77
2022-09-24T19:30:18.245Z,10.55
2022-09-24T19:32:47.419Z,11.45
2022-09-24T19:35:16.730Z,10.13
2022-09-24T19:37:53.559Z,12.40
2022-09-24T19:40:23.610Z,19.15
2022-09-24T19:47:17.071Z,15.35
2022-09-24T19:49:46.059Z,13.23
2022-09-24T19:56:59.205Z,12.05
2022-09-24T19:59:31.432Z,12.85
2022-09-24T20:02:31.681Z,11.63
2022-09-24T20:05:01.501Z,10.70
2022-09-24T20:12:29.773Z,8.15
2022-09-24T20:14:58.683Z,9.13
2022-09-24T20:17:27.764Z,7.63
2022-09-24T20:20:01.128Z,6.18
2022-09-24T20:22:30.404Z,6.90
2022-09-24T20:24:59.415Z,7.30
2022-09-24T20:27:45.693Z,7.88
2022-09-24T20:30:14.834Z,8.50
2022-09-24T20:37:56.660Z,7.15
2022-09-24T20:40:25.737Z,7.38
2022-09-24T20:42:55.329Z,7.15
2022-09-24T20:45:24.291Z,6.90
2022-09-24T20:47:53.521Z,7.53
2022-09-24T20:50:22.404Z,7.40
2022-09-24T20:52:52.006Z,6.88
2022-09-24T20:57:52.362Z,7.45
2022-09-24T21:00:21.378Z,9.45
2022-09-24T21:02:50.563Z,7.82
2022-09-24T21:05:20.191Z,9.05
2022-09-24T21:07:49.280Z,7.65
2022-09-24T21:10:18.106Z,7.18
2022-09-24T21:12:51.089Z,7.60
2022-09-24T21:15:20.692Z,8.02
2022-09-24T21:18:18.320Z,8.27
2022-09-24T21:20:40.690Z,8.60
2022-09-24T21:23:38.341Z,8.43
2022-09-24T21:30:41.734Z,10.07
2022-09-24T21:33:10.854Z,10.95
2022-09-24T21:35:39.580Z,10.45
2022-09-24T21:38:08.795Z,10.07
2022-09-24T21:40:38.131Z,10.90
2022-09-24T21:43:07.206Z,10.55
2022-09-24T21:45:37.654Z,9.80
2022-09-24T21:48:09.237Z,10.23
2022-09-24T21:50:40.384Z,10.95
2022-09-24T21:53:10.433Z,11.48
2022-09-24T21:55:40.679Z,11.30
2022-09-24T21:58:09.716Z,11.73
2022-09-24T22:00:38.537Z,10.50
2022-09-24T22:03:09.929Z,12.10
2022-09-24T22:05:43.235Z,11.75
2022-09-24T22:08:13.334Z,11.73
2022-09-24T22:10:44.228Z,11.45
2022-09-24T22:13:15.179Z,11.70
2022-09-24T22:15:44.723Z,11.40
2022-09-24T22:20:45.096Z,9.15
2022-09-24T22:23:13.862Z,8.27
2022-09-24T22:25:46.428Z,7.68
2022-09-24T22:28:20.517Z,7.28
2022-09-24T22:30:51.458Z,7.50
2022-09-24T22:33:39.438Z,7.68
2022-09-24T22:36:09.605Z,7.88
2022-09-24T22:38:39.402Z,7.85
2022-09-24T22:41:11.201Z,8.43
2022-09-24T22:43:41.207Z,7.38
2022-09-24T22:46:11.991Z,8.80
2022-09-24T22:48:44.037Z,9.35
2022-09-24T22:51:44.372Z,9.32
2022-09-24T22:54:15.725Z,8.85
2022-09-24T22:57:22.282Z,9.32
2022-09-24T22:59:51.460Z,8.10
2022-09-24T23:02:26.161Z,8.77
2022-09-24T23:05:07.432Z,8.55
2022-09-24T23:07:36.494Z,8.73
2022-09-24T23:10:06.800Z,7.83
2022-09-24T23:13:18.414Z,7.50
2022-09-24T23:15:47.257Z,7.05
2022-09-24T23:18:16.419Z,7.45
2022-09-24T23:20:52.451Z,7.45
2022-09-24T23:23:27.502Z,7.68
2022-09-24T23:26:05.066Z,8.07
2022-09-24T23:28:35.200Z,8.02
2022-09-24T23:31:35.778Z,7.25
2022-09-24T23:34:07.252Z,7.43
2022-09-24T23:36:38.056Z,6.97
2022-09-24T23:39:07.423Z,6.38
2022-09-24T23:46:10.577Z,7.35
2022-09-24T23:48:40.201Z,7.00
2022-09-24T23:51:10.060Z,7.40
2022-09-24T23:53:45.444Z,7.03
